Time;durP1;ratioP1;P1;durP2;ratioP2;P2;SDS_P1;SDS_P2;PMS_P1;PMS_P2;Temp;Humidity;BMP_temperature;BMP_pressure;BME280_temperature;BME280_humidity;BME280_pressure;Samples;Min_cycle;Max_cycle;Signal;HPM_P1;HPM_P2
2024/01/27 00:01:02;;;;;;;4.82;2.15;;;;;;;;;;5036858;28;20114;-85
2024/01/27 00:03:28;;;;;;;6.47;2.30;;;;;;;;;;5049375;28;20059;-86
2024/01/27 00:05:55;;;;;;;11.68;3.60;;;;;;;;;;5039928;28;20049;-87
2024/01/27 00:08:22;;;;;;;21.10;3.17;;;;;;;;;;5061289;28;20040;-87
2024/01/27 00:10:49;;;;;;;10.27;2.58;;;;;;;;;;5047294;28;20140;-87
2024/01/27 00:13:15;;;;;;;4.20;2.40;;;;;;;;;;5054391;28;20295;-89
2024/01/27 00:15:42;;;;;;;7.95;2.22;;;;;;;;;;5037196;28;20053;-89
2024/01/27 00:18:09;;;;;;;13.05;2.42;;;;;;;;;;5034214;28;20053;-90
2024/01/27 00:20:35;;;;;;;5.28;1.65;;;;;;;;;;5053337;28;20099;-89
2024/01/27 00:23:02;;;;;;;9.43;2.30;;;;;;;;;;5036055;28;20045;-89
2024/01/27 00:25:29;;;;;;;3.90;2.00;;;;;;;;;;5028552;28;20053;-89
2024/01/27 00:27:56;;;;;;;3.75;1.92;;;;;;;;;;5053571;28;20580;-89
2024/01/27 00:30:22;;;;;;;6.10;2.13;;;;;;;;;;5036641;28;20053;-90
2024/01/27 00:32:49;;;;;;;4.93;1.83;;;;;;;;;;5054185;28;20135;-87
2024/01/27 00:35:16;;;;;;;4.25;1.83;;;;;;;;;;5042763;28;20060;-87
2024/01/27 00:37:44;;;;;;;3.80;1.95;;;;;;;;;;5062855;28;20048;-87
2024/01/27 00:40:12;;;;;;;6.00;2.20;;;;;;;;;;5044574;28;20053;-87
2024/01/27 00:42:41;;;;;;;4.45;2.33;;;;;;;;;;5042983;28;20076;-86
2024/01/27 00:45:09;;;;;;;4.63;2.35;;;;;;;;;;5043372;28;20056;-87
2024/01/27 00:47:37;;;;;;;8.38;2.00;;;;;;;;;;5041918;28;20052;-87
2024/01/27 00:50:08;;;;;;;6.53;2.55;;;;;;;;;;5039712;28;20049;-87
2024/01/27 00:52:35;;;;;;;6.97;2.33;;;;;;;;;;5036746;28;20532;-87
2024/01/27 00:55:03;;;;;;;5.57;2.92;;;;;;;;;;5035796;28;20351;-86
2024/01/27 00:57:30;;;;;;;4.47;2.38;;;;;;;;;;5036220;28;20067;-87
2024/01/27 00:59:57;;;;;;;5.82;2.33;;;;;;;;;;5034262;28;20053;-87
2024/01/27 01:02:23;;;;;;;4.10;2.28;;;;;;;;;;5034727;28;20495;-88
2024/01/27 01:04:50;;;;;;;6.00;3.10;;;;;;;;;;5035732;28;20076;-87
2024/01/27 01:07:16;;;;;;;7.97;2.90;;;;;;;;;;5051613;28;20055;-86
2024/01/27 01:09:43;;;;;;;5.97;2.90;;;;;;;;;;5035826;28;20119;-85
2024/01/27 01:12:10;;;;;;;4.60;2.45;;;;;;;;;;5035809;28;20048;-87
2024/01/27 01:14:36;;;;;;;7.25;3.22;;;;;;;;;;5031741;28;20075;-86
2024/01/27 01:17:04;;;;;;;4.55;2.20;;;;;;;;;;5044810;28;20549;-86
2024/01/27 01:19:31;;;;;;;6.20;2.40;;;;;;;;;;5043883;28;20053;-87
2024/01/27 01:21:58;;;;;;;5.97;2.20;;;;;;;;;;5051537;28;20132;-87
2024/01/27 01:24:24;;;;;;;9.50;2.40;;;;;;;;;;5034930;28;20526;-87
2024/01/27 01:26:51;;;;;;;5.45;2.55;;;;;;;;;;5034955;28;20457;-87
2024/01/27 01:29:18;;;;;;;4.07;2.22;;;;;;;;;;5052920;28;20060;-85
2024/01/27 01:31:44;;;;;;;4.13;2.17;;;;;;;;;;5054923;28;20064;-85
2024/01/27 01:34:11;;;;;;;6.78;3.35;;;;;;;;;;5053471;28;20053;-85
2024/01/27 01:36:38;;;;;;;8.50;3.35;;;;;;;;;;5035515;28;20053;-85
2024/01/27 01:39:06;;;;;;;4.30;2.40;;;;;;;;;;5052180;28;20055;-85
2024/01/27 01:41:32;;;;;;;5.25;2.67;;;;;;;;;;5052244;28;20080;-89
2024/01/27 01:43:59;;;;;;;3.88;2.40;;;;;;;;;;5027531;28;20118;-89
2024/01/27 01:46:26;;;;;;;6.03;2.78;;;;;;;;;;5044948;28;20130;-89
2024/01/27 01:48:53;;;;;;;4.15;2.13;;;;;;;;;;5058145;28;20127;-89
2024/01/27 01:51:30;;;;;;;5.55;2.28;;;;;;;;;;5055214;28;20064;-88
2024/01/27 01:53:58;;;;;;;6.28;2.38;;;;;;;;;;5058040;28;20562;-85
2024/01/27 01:56:25;;;;;;;6.60;2.35;;;;;;;;;;5041603;28;20113;-87
2024/01/27 01:58:54;;;;;;;3.00;1.80;;;;;;;;;;5056311;28;20140;-87
2024/01/27 02:01:22;;;;;;;4.00;2.50;;;;;;;;;;5035140;28;20052;-87
2024/01/27 02:03:56;;;;;;;5.55;2.50;;;;;;;;;;5034301;28;20478;-88
2024/01/27 02:06:23;;;;;;;6.88;2.67;;;;;;;;;;5034039;28;20049;-88
2024/01/27 02:08:51;;;;;;;6.30;2.78;;;;;;;;;;5034970;28;20044;-87
2024/01/27 02:11:17;;;;;;;4.20;2.60;;;;;;;;;;5050692;28;20052;-87
2024/01/27 02:13:44;;;;;;;8.35;2.53;;;;;;;;;;5034754;28;20053;-87
2024/01/27 02:16:11;;;;;;;3.78;2.10;;;;;;;;;;5037382;28;20068;-86
2024/01/27 02:18:38;;;;;;;5.28;2.58;;;;;;;;;;5031508;28;20065;-87
2024/01/27 02:21:06;;;;;;;4.55;2.25;;;;;;;;;;5051532;28;20399;-89
2024/01/27 02:23:33;;;;;;;6.60;2.50;;;;;;;;;;5034029;28;20064;-87
2024/01/27 02:26:00;;;;;;;7.05;2.72;;;;;;;;;;5034138;28;20045;-88
2024/01/27 02:28:31;;;;;;;6.22;2.70;;;;;;;;;;5050668;28;20530;-88
2024/01/27 02:31:01;;;;;;;5.53;2.92;;;;;;;;;;5035463;28;20053;-87
2024/01/27 02:33:28;;;;;;;5.03;2.20;;;;;;;;;;5034840;28;20041;-87
2024/01/27 02:35:56;;;;;;;3.75;2.10;;;;;;;;;;5034286;28;20053;-87
2024/01/27 02:38:23;;;;;;;6.30;2.28;;;;;;;;;;5032987;28;20423;-86
2024/01/27 02:40:49;;;;;;;7.75;2.60;;;;;;;;;;5034149;28;20128;-87
2024/01/27 02:43:18;;;;;;;5.03;2.38;;;;;;;;;;5042449;28;20075;-87
2024/01/27 02:45:45;;;;;;;7.40;2.83;;;;;;;;;;5041377;28;20529;-87
2024/01/27 02:48:13;;;;;;;3.78;2.20;;;;;;;;;;5033925;28;20110;-87
2024/01/27 02:50:40;;;;;;;4.68;2.22;;;;;;;;;;5034843;28;20053;-87
2024/01/27 02:53:08;;;;;;;4.35;2.10;;;;;;;;;;5030694;28;20507;-87
2024/01/27 02:55:35;;;;;;;6.75;2.90;;;;;;;;;;5034338;28;20106;-86
2024/01/27 02:58:01;;;;;;;4.22;2.63;;;;;;;;;;5038133;28;20087;-89
2024/01/27 03:00:28;;;;;;;4.15;2.03;;;;;;;;;;5050616;28;20056;-88
2024/01/27 03:02:58;;;;;;;8.13;2.95;;;;;;;;;;5050591;28;20055;-86
2024/01/27 03:05:24;;;;;;;4.47;2.17;;;;;;;;;;5050361;28;20072;-87
2024/01/27 03:07:54;;;;;;;5.43;2.20;;;;;;;;;;5031494;28;20091;-87
2024/01/27 03:10:21;;;;;;;3.17;2.30;;;;;;;;;;5050628;28;20130;-84
2024/01/27 03:12:47;;;;;;;6.45;2.45;;;;;;;;;;5055506;28;20124;-83
2024/01/27 03:15:14;;;;;;;6.47;2.28;;;;;;;;;;5039298;28;20392;-84
2024/01/27 03:17:41;;;;;;;5.88;3.15;;;;;;;;;;5037667;28;20049;-85
2024/01/27 03:20:08;;;;;;;8.88;2.42;;;;;;;;;;5052900;28;20052;-85
2024/01/27 03:22:35;;;;;;;5.10;2.78;;;;;;;;;;5038321;28;20176;-85
2024/01/27 03:25:01;;;;;;;8.70;3.92;;;;;;;;;;5037715;28;20044;-85
2024/01/27 03:27:28;;;;;;;7.63;3.65;;;;;;;;;;5036395;28;20087;-86
2024/01/27 03:29:56;;;;;;;9.73;3.90;;;;;;;;;;5053322;28;20105;-85
2024/01/27 03:32:22;;;;;;;5.97;4.03;;;;;;;;;;5041781;28;20174;-85
2024/01/27 03:34:49;;;;;;;13.30;5.28;;;;;;;;;;5038657;28;20625;-85
2024/01/27 03:37:16;;;;;;;8.00;4.60;;;;;;;;;;5046699;28;20098;-85
2024/01/27 03:39:42;;;;;;;9.73;4.50;;;;;;;;;;5053932;28;20053;-85
2024/01/27 03:42:09;;;;;;;9.73;3.58;;;;;;;;;;5053699;28;20450;-88
2024/01/27 03:44:36;;;;;;;16.38;4.78;;;;;;;;;;5036683;28;20091;-88
2024/01/27 03:47:03;;;;;;;7.70;3.97;;;;;;;;;;5030713;28;20136;-87
2024/01/27 03:49:29;;;;;;;11.55;4.40;;;;;;;;;;5053531;28;20080;-87
2024/01/27 03:51:56;;;;;;;5.40;3.53;;;;;;;;;;5068624;28;20052;-87
2024/01/27 03:54:22;;;;;;;9.55;4.38;;;;;;;;;;5057833;28;20135;-85
2024/01/27 03:56:49;;;;;;;10.20;5.55;;;;;;;;;;5057631;28;20422;-85
2024/01/27 03:59:16;;;;;;;6.40;3.95;;;;;;;;;;5059211;28;20736;-85
2024/01/27 04:01:42;;;;;;;5.93;3.55;;;;;;;;;;5033836;28;20053;-88
2024/01/27 04:04:09;;;;;;;12.15;4.50;;;;;;;;;;5053933;28;20127;-88
2024/01/27 04:06:39;;;;;;;6.43;4.05;;;;;;;;;;5056074;28;20049;-87
2024/01/27 04:09:08;;;;;;;6.45;4.43;;;;;;;;;;5038426;28;20049;-85
2024/01/27 04:11:39;;;;;;;7.35;4.22;;;;;;;;;;5038700;28;20059;-86
2024/01/27 04:14:06;;;;;;;8.05;4.32;;;;;;;;;;5037704;28;20144;-87
2024/01/27 04:16:33;;;;;;;8.32;4.03;;;;;;;;;;5046686;28;20056;-88
2024/01/27 04:18:59;;;;;;;7.97;4.38;;;;;;;;;;5054320;28;20135;-88
2024/01/27 04:21:26;;;;;;;7.47;3.95;;;;;;;;;;5047247;28;20417;-88
2024/01/27 04:23:53;;;;;;;8.55;3.80;;;;;;;;;;5049146;28;20124;-88
2024/01/27 04:26:20;;;;;;;8.20;3.88;;;;;;;;;;5036055;28;20060;-88
2024/01/27 04:28:46;;;;;;;8.85;4.10;;;;;;;;;;5036138;28;20067;-88
2024/01/27 04:31:13;;;;;;;8.68;4.45;;;;;;;;;;5036282;28;20140;-89
2024/01/27 04:33:39;;;;;;;10.00;3.78;;;;;;;;;;5052796;28;20132;-88
2024/01/27 04:36:10;;;;;;;6.88;4.50;;;;;;;;;;5051023;28;20053;-88
2024/01/27 04:38:36;;;;;;;6.88;4.93;;;;;;;;;;5052665;28;20053;-87
2024/01/27 04:41:03;;;;;;;9.50;4.93;;;;;;;;;;5052995;28;20124;-87
2024/01/27 04:43:30;;;;;;;7.57;4.60;;;;;;;;;;5052541;28;20534;-87
2024/01/27 04:45:56;;;;;;;10.95;5.00;;;;;;;;;;5037675;28;20136;-87
2024/01/27 04:48:23;;;;;;;8.43;4.60;;;;;;;;;;5036719;28;20136;-87
2024/01/27 04:50:50;;;;;;;7.40;4.07;;;;;;;;;;5036023;28;20132;-87
2024/01/27 04:53:17;;;;;;;9.20;4.53;;;;;;;;;;5044409;28;20131;-87
2024/01/27 04:55:44;;;;;;;7.10;3.67;;;;;;;;;;5049349;28;20057;-85
2024/01/27 04:58:10;;;;;;;6.70;3.20;;;;;;;;;;5043650;28;20080;-87
2024/01/27 05:00:37;;;;;;;8.38;3.97;;;;;;;;;;5038247;28;20049;-86
2024/01/27 05:03:07;;;;;;;7.80;3.70;;;;;;;;;;5054234;28;20538;-86
2024/01/27 05:05:33;;;;;;;8.45;3.75;;;;;;;;;;5053107;28;20048;-87
2024/01/27 05:08:02;;;;;;;8.68;3.47;;;;;;;;;;5040311;28;20415;-85
2024/01/27 05:10:29;;;;;;;7.97;4.10;;;;;;;;;;5033098;28;20422;-87
2024/01/27 05:12:56;;;;;;;6.63;4.22;;;;;;;;;;5035559;28;20045;-88
2024/01/27 05:15:22;;;;;;;6.38;3.85;;;;;;;;;;5051672;28;20057;-87
2024/01/27 05:17:49;;;;;;;9.65;3.70;;;;;;;;;;5031060;28;20132;-87
2024/01/27 05:20:17;;;;;;;6.78;3.78;;;;;;;;;;5051952;28;20044;-87
2024/01/27 05:22:44;;;;;;;6.78;3.97;;;;;;;;;;5035097;28;20572;-87
2024/01/27 05:25:11;;;;;;;7.80;3.55;;;;;;;;;;5034005;28;20161;-87
2024/01/27 05:27:38;;;;;;;7.28;4.07;;;;;;;;;;5042742;28;20215;-86
2024/01/27 05:30:06;;;;;;;9.82;4.13;;;;;;;;;;5044365;28;20054;-88
2024/01/27 05:32:32;;;;;;;11.52;4.13;;;;;;;;;;5053447;28;20074;-87
2024/01/27 05:34:59;;;;;;;5.03;3.58;;;;;;;;;;5035572;28;20053;-85
2024/01/27 05:37:25;;;;;;;7.45;3.83;;;;;;;;;;5046615;28;20045;-87
2024/01/27 05:39:52;;;;;;;8.15;3.63;;;;;;;;;;5040483;28;20053;-85
2024/01/27 05:42:19;;;;;;;9.88;4.60;;;;;;;;;;5062481;28;20048;-85
2024/01/27 05:44:45;;;;;;;6.35;4.47;;;;;;;;;;5065114;28;20053;-87
2024/01/27 05:47:12;;;;;;;8.30;3.88;;;;;;;;;;5050546;28;20072;-87
2024/01/27 05:49:39;;;;;;;5.43;3.90;;;;;;;;;;5034740;28;20056;-87
2024/01/27 05:52:06;;;;;;;5.47;3.22;;;;;;;;;;5034724;28;20102;-87
2024/01/27 05:54:33;;;;;;;7.30;3.67;;;;;;;;;;5068354;28;20505;-86
2024/01/27 05:56:59;;;;;;;6.57;3.80;;;;;;;;;;5051334;28;20633;-86
2024/01/27 05:59:26;;;;;;;7.20;4.25;;;;;;;;;;5050376;28;20372;-86
2024/01/27 06:01:53;;;;;;;5.90;3.63;;;;;;;;;;5067360;28;20499;-87
2024/01/27 06:04:20;;;;;;;7.38;3.90;;;;;;;;;;5034225;28;20107;-87
2024/01/27 06:06:47;;;;;;;5.32;3.55;;;;;;;;;;5048307;28;20064;-87
2024/01/27 06:09:14;;;;;;;9.05;3.58;;;;;;;;;;5034467;28;20136;-87
2024/01/27 06:11:41;;;;;;;7.93;4.05;;;;;;;;;;5034480;28;20089;-87
2024/01/27 06:14:07;;;;;;;6.82;3.67;;;;;;;;;;5050698;28;20080;-87
2024/01/27 06:16:35;;;;;;;9.05;3.97;;;;;;;;;;5033533;28;20098;-87
2024/01/27 06:19:02;;;;;;;10.80;6.10;;;;;;;;;;5034083;28;20501;-86
2024/01/27 06:21:29;;;;;;;12.68;6.05;;;;;;;;;;5050907;28;20052;-86
2024/01/27 06:23:55;;;;;;;16.27;7.50;;;;;;;;;;5034161;28;20052;-86
2024/01/27 06:26:22;;;;;;;12.40;6.20;;;;;;;;;;5049641;28;20045;-86
2024/01/27 06:28:49;;;;;;;14.18;6.03;;;;;;;;;;5054112;28;20072;-87
2024/01/27 06:31:15;;;;;;;11.57;5.50;;;;;;;;;;5078272;28;20052;-88
2024/01/27 06:33:43;;;;;;;12.35;5.40;;;;;;;;;;5054887;28;20087;-88
2024/01/27 06:36:09;;;;;;;7.65;4.40;;;;;;;;;;5061469;28;20033;-89
2024/01/27 06:38:39;;;;;;;9.48;4.68;;;;;;;;;;5078498;28;20093;-90
2024/01/27 06:41:06;;;;;;;9.10;4.47;;;;;;;;;;5048558;28;20076;-84
2024/01/27 06:43:32;;;;;;;9.88;4.07;;;;;;;;;;5060328;28;20076;-83
2024/01/27 06:45:59;;;;;;;7.35;4.28;;;;;;;;;;5062963;28;20080;-83
2024/01/27 06:48:26;;;;;;;9.73;6.20;;;;;;;;;;5044748;28;20076;-84
2024/01/27 06:50:53;;;;;;;7.45;4.63;;;;;;;;;;5056417;28;20049;-84
2024/01/27 06:53:20;;;;;;;8.10;4.13;;;;;;;;;;5069558;28;20053;-85
2024/01/27 06:55:47;;;;;;;5.70;4.40;;;;;;;;;;5059736;28;20111;-85
2024/01/27 06:58:13;;;;;;;11.50;6.70;;;;;;;;;;5050439;28;20540;-85
2024/01/27 07:00:40;;;;;;;11.40;4.40;;;;;;;;;;5051209;28;20459;-86
2024/01/27 07:03:07;;;;;;;7.70;5.20;;;;;;;;;;5051274;28;20495;-85
2024/01/27 07:05:40;;;;;;;9.23;5.85;;;;;;;;;;5055428;28;20127;-84
2024/01/27 07:08:07;;;;;;;9.20;6.57;;;;;;;;;;5059884;28;20057;-82
2024/01/27 07:10:34;;;;;;;12.30;7.15;;;;;;;;;;5040110;28;20127;-81
2024/01/27 07:13:01;;;;;;;9.95;5.55;;;;;;;;;;5073458;28;20139;-82
2024/01/27 07:15:28;;;;;;;7.90;5.63;;;;;;;;;;5070801;28;20047;-82
2024/01/27 07:17:55;;;;;;;9.68;5.68;;;;;;;;;;5035035;28;20055;-85
2024/01/27 07:20:24;;;;;;;7.45;5.35;;;;;;;;;;5040625;28;20139;-84
2024/01/27 07:22:51;;;;;;;9.35;5.90;;;;;;;;;;5051335;28;20049;-82
2024/01/27 07:25:17;;;;;;;9.70;5.82;;;;;;;;;;5034176;28;20132;-84
2024/01/27 07:27:44;;;;;;;7.22;5.35;;;;;;;;;;5035968;28;20053;-83
2024/01/27 07:30:11;;;;;;;8.10;5.55;;;;;;;;;;5063723;28;20056;-86
2024/01/27 07:32:38;;;;;;;9.10;5.05;;;;;;;;;;5041162;28;20056;-83
2024/01/27 07:35:05;;;;;;;6.57;5.07;;;;;;;;;;5051278;28;20063;-81
2024/01/27 07:37:32;;;;;;;6.00;4.50;;;;;;;;;;5078699;28;20057;-83
2024/01/27 07:39:59;;;;;;;7.47;4.85;;;;;;;;;;5035324;28;20053;-83
2024/01/27 07:42:25;;;;;;;7.82;5.03;;;;;;;;;;5036509;28;20073;-83
2024/01/27 07:44:53;;;;;;;6.47;4.82;;;;;;;;;;5056403;28;20057;-83
2024/01/27 07:47:19;;;;;;;7.18;5.13;;;;;;;;;;5057846;28;20056;-82
2024/01/27 07:49:46;;;;;;;8.13;4.78;;;;;;;;;;5042856;28;20085;-82
2024/01/27 07:52:13;;;;;;;10.45;5.25;;;;;;;;;;5031490;28;20053;-82
2024/01/27 07:54:40;;;;;;;7.78;4.80;;;;;;;;;;5034021;28;20818;-83
2024/01/27 07:57:07;;;;;;;8.45;5.00;;;;;;;;;;5049746;28;20053;-82
2024/01/27 07:59:33;;;;;;;7.07;4.78;;;;;;;;;;5035131;28;20053;-79
2024/01/27 08:02:00;;;;;;;9.00;5.95;;;;;;;;;;5035683;28;20127;-80
2024/01/27 08:04:27;;;;;;;8.98;6.05;;;;;;;;;;5051635;28;20171;-84
2024/01/27 08:06:53;;;;;;;8.68;6.10;;;;;;;;;;5045541;28;20054;-78
2024/01/27 08:09:20;;;;;;;10.68;6.70;;;;;;;;;;5060288;28;20057;-80
2024/01/27 08:11:51;;;;;;;11.75;6.18;;;;;;;;;;5043226;28;20085;-80
2024/01/27 08:14:18;;;;;;;15.27;6.53;;;;;;;;;;5056004;28;20053;-80
2024/01/27 08:16:45;;;;;;;10.10;6.00;;;;;;;;;;5051949;28;20116;-79
2024/01/27 08:19:11;;;;;;;14.85;7.95;;;;;;;;;;5037379;28;20140;-78
2024/01/27 08:21:38;;;;;;;21.40;8.95;;;;;;;;;;5043888;28;20048;-80
2024/01/27 08:24:05;;;;;;;18.15;8.45;;;;;;;;;;5065634;28;20494;-80
2024/01/27 08:26:32;;;;;;;19.75;10.15;;;;;;;;;;5027122;28;20045;-83
2024/01/27 08:28:59;;;;;;;17.10;8.95;;;;;;;;;;5053893;28;20064;-85
2024/01/27 08:31:25;;;;;;;18.58;8.70;;;;;;;;;;5039465;28;20144;-78
2024/01/27 08:33:52;;;;;;;11.15;6.88;;;;;;;;;;5053743;28;20056;-79
2024/01/27 08:36:19;;;;;;;8.38;5.22;;;;;;;;;;5055663;28;20053;-82
2024/01/27 08:38:46;;;;;;;9.52;5.60;;;;;;;;;;5061283;28;20077;-82
2024/01/27 08:41:13;;;;;;;13.68;6.50;;;;;;;;;;5042552;28;20122;-81
2024/01/27 08:43:39;;;;;;;13.10;6.80;;;;;;;;;;5060811;28;20087;-81
2024/01/27 08:46:11;;;;;;;13.60;7.55;;;;;;;;;;5043559;28;20057;-82
2024/01/27 08:48:38;;;;;;;9.05;6.20;;;;;;;;;;5049404;28;20049;-83
2024/01/27 08:51:05;;;;;;;11.55;6.07;;;;;;;;;;5039728;28;20083;-84
2024/01/27 08:53:32;;;;;;;12.30;6.43;;;;;;;;;;5038278;28;20060;-84
2024/01/27 08:55:58;;;;;;;9.23;5.57;;;;;;;;;;5039611;28;20072;-83
2024/01/27 08:58:28;;;;;;;11.52;6.30;;;;;;;;;;5037295;28;20457;-83
2024/01/27 09:00:55;;;;;;;12.07;5.82;;;;;;;;;;5054751;28;20053;-82
2024/01/27 09:03:21;;;;;;;11.65;5.78;;;;;;;;;;5058880;28;20045;-83
2024/01/27 09:05:48;;;;;;;12.00;6.28;;;;;;;;;;5053148;28;20041;-82
2024/01/27 09:08:15;;;;;;;8.63;5.53;;;;;;;;;;5053660;28;20049;-82
2024/01/27 09:10:42;;;;;;;8.70;5.60;;;;;;;;;;5053294;28;20171;-83
2024/01/27 09:13:09;;;;;;;11.48;5.75;;;;;;;;;;5054344;28;20120;-83
2024/01/27 09:15:35;;;;;;;8.85;5.78;;;;;;;;;;5056495;28;20076;-83
2024/01/27 09:18:02;;;;;;;10.75;5.47;;;;;;;;;;5034152;28;20049;-83
2024/01/27 09:20:29;;;;;;;8.15;5.20;;;;;;;;;;5054495;28;20445;-83
2024/01/27 09:22:55;;;;;;;10.65;6.13;;;;;;;;;;5072601;28;20068;-84
2024/01/27 09:25:22;;;;;;;10.50;5.75;;;;;;;;;;5038757;28;20136;-84
2024/01/27 09:27:49;;;;;;;10.07;5.90;;;;;;;;;;5048427;28;20073;-83
2024/01/27 09:30:15;;;;;;;8.73;5.75;;;;;;;;;;5040432;28;20115;-83
2024/01/27 09:32:42;;;;;;;10.77;5.97;;;;;;;;;;5051614;28;20423;-83
2024/01/27 09:35:09;;;;;;;7.43;5.20;;;;;;;;;;5057368;28;20095;-83
2024/01/27 09:37:35;;;;;;;12.40;5.78;;;;;;;;;;5055021;28;20045;-84
2024/01/27 09:40:04;;;;;;;9.10;6.00;;;;;;;;;;5054570;28;20068;-84
2024/01/27 09:42:31;;;;;;;10.52;6.22;;;;;;;;;;5038933;28;20073;-84
2024/01/27 09:44:57;;;;;;;8.60;5.68;;;;;;;;;;5055884;28;20068;-84
2024/01/27 09:47:24;;;;;;;12.98;6.15;;;;;;;;;;5034315;28;20053;-83
2024/01/27 09:49:51;;;;;;;10.60;5.90;;;;;;;;;;5055498;28;20112;-83
2024/01/27 09:52:18;;;;;;;11.63;6.07;;;;;;;;;;5037323;28;20049;-84
2024/01/27 09:54:44;;;;;;;11.82;6.10;;;;;;;;;;5047586;28;20049;-83
2024/01/27 09:57:11;;;;;;;8.43;5.80;;;;;;;;;;5037751;28;20060;-83
2024/01/27 09:59:39;;;;;;;14.45;6.10;;;;;;;;;;5031858;28;20128;-83
2024/01/27 10:02:05;;;;;;;12.20;5.60;;;;;;;;;;5050752;28;20105;-83
2024/01/27 10:04:32;;;;;;;11.50;5.97;;;;;;;;;;5038500;28;20049;-83
2024/01/27 10:06:58;;;;;;;10.65;5.68;;;;;;;;;;5037878;28;20048;-83
2024/01/27 10:09:25;;;;;;;11.32;5.60;;;;;;;;;;5039029;28;20147;-84
2024/01/27 10:11:52;;;;;;;12.38;5.80;;;;;;;;;;5039759;28;20068;-83
2024/01/27 10:14:19;;;;;;;12.05;6.78;;;;;;;;;;5037578;28;20049;-84
2024/01/27 10:16:46;;;;;;;12.95;6.38;;;;;;;;;;5039428;28;20246;-84
2024/01/27 10:19:20;;;;;;;10.68;5.60;;;;;;;;;;5029525;28;20100;-83
2024/01/27 10:21:47;;;;;;;14.40;6.38;;;;;;;;;;5045998;28;20108;-83
2024/01/27 10:24:14;;;;;;;9.55;6.13;;;;;;;;;;5049145;28;20079;-84
2024/01/27 10:26:41;;;;;;;11.82;6.57;;;;;;;;;;5035630;28;20079;-83
2024/01/27 10:29:08;;;;;;;9.05;5.60;;;;;;;;;;5069434;28;20053;-83
2024/01/27 10:31:36;;;;;;;10.00;5.72;;;;;;;;;;5046618;28;20049;-84
2024/01/27 10:34:04;;;;;;;11.35;5.72;;;;;;;;;;5039332;28;20103;-84
2024/01/27 10:36:39;;;;;;;12.43;5.95;;;;;;;;;;5053406;28;20052;-84
2024/01/27 10:39:16;;;;;;;10.32;5.50;;;;;;;;;;5041010;28;20524;-84
2024/01/27 10:41:46;;;;;;;9.35;5.68;;;;;;;;;;5053678;28;20116;-84
2024/01/27 10:44:14;;;;;;;8.95;5.22;;;;;;;;;;5036948;28;20469;-82
2024/01/27 10:46:45;;;;;;;9.05;4.03;;;;;;;;;;5046515;28;20049;-81
2024/01/27 10:49:12;;;;;;;8.63;4.13;;;;;;;;;;5050218;28;20116;-85
2024/01/27 10:51:38;;;;;;;6.28;3.10;;;;;;;;;;5045459;28;20126;-85
2024/01/27 10:54:07;;;;;;;6.18;3.25;;;;;;;;;;5047092;28;20041;-83
2024/01/27 10:56:34;;;;;;;10.18;4.20;;;;;;;;;;5029519;28;20072;-83
2024/01/27 10:59:01;;;;;;;11.30;4.35;;;;;;;;;;5037914;28;20068;-83
2024/01/27 11:01:27;;;;;;;5.22;3.28;;;;;;;;;;5041161;28;20076;-84
2024/01/27 11:03:54;;;;;;;8.40;4.05;;;;;;;;;;5042714;28;20056;-83
2024/01/27 11:06:22;;;;;;;8.75;4.07;;;;;;;;;;5052621;28;20112;-83
2024/01/27 11:08:49;;;;;;;8.70;4.00;;;;;;;;;;5055329;28;20076;-84
2024/01/27 11:11:16;;;;;;;10.35;4.25;;;;;;;;;;5051960;28;20079;-84
2024/01/27 11:13:45;;;;;;;17.45;6.90;;;;;;;;;;5052665;28;20080;-83
2024/01/27 11:16:18;;;;;;;21.70;8.02;;;;;;;;;;5052164;28;20045;-84
2024/01/27 11:18:45;;;;;;;;;;;;;;;;;;5054362;28;20072;-84
2024/01/27 11:21:15;;;;;;;9.48;3.90;;;;;;;;;;5057551;28;19947;-84
2024/01/27 11:23:43;;;;;;;12.38;3.85;;;;;;;;;;5039843;28;20057;-83
2024/01/27 11:26:10;;;;;;;9.70;4.38;;;;;;;;;;5057246;28;20053;-84
2024/01/27 11:28:37;;;;;;;9.30;3.88;;;;;;;;;;5038729;28;20084;-83
2024/01/27 11:31:04;;;;;;;10.02;3.85;;;;;;;;;;5051638;28;20059;-84
2024/01/27 11:33:31;;;;;;;6.28;3.67;;;;;;;;;;5037399;28;20475;-84
2024/01/27 11:36:02;;;;;;;8.30;3.80;;;;;;;;;;5039156;28;20145;-84
2024/01/27 11:38:30;;;;;;;6.72;3.45;;;;;;;;;;5053772;28;20086;-83
2024/01/27 11:40:56;;;;;;;10.27;4.05;;;;;;;;;;5053492;28;20112;-84
2024/01/27 11:43:23;;;;;;;5.35;3.33;;;;;;;;;;5054931;28;20053;-83
2024/01/27 11:45:59;;;;;;;7.50;3.00;;;;;;;;;;5054156;28;20102;-84
2024/01/27 11:48:26;;;;;;;5.13;3.47;;;;;;;;;;5034710;28;20084;-85
2024/01/27 11:51:10;;;;;;;10.32;3.60;;;;;;;;;;5033560;28;20048;-84
2024/01/27 11:53:37;;;;;;;8.10;3.70;;;;;;;;;;5056116;28;20057;-84
2024/01/27 11:56:04;;;;;;;10.70;3.30;;;;;;;;;;5041928;28;20094;-80
2024/01/27 11:58:31;;;;;;;8.05;3.42;;;;;;;;;;5058586;28;20053;-81
2024/01/27 12:01:00;;;;;;;4.65;2.88;;;;;;;;;;5060475;28;20108;-80
2024/01/27 12:03:28;;;;;;;8.70;3.15;;;;;;;;;;5055904;28;20041;-81
2024/01/27 12:05:55;;;;;;;7.72;3.50;;;;;;;;;;5036859;28;20087;-80
2024/01/27 12:08:22;;;;;;;8.88;3.00;;;;;;;;;;5054950;28;20065;-81
2024/01/27 12:10:49;;;;;;;13.60;3.88;;;;;;;;;;5028425;28;20125;-81
2024/01/27 12:13:16;;;;;;;10.00;3.38;;;;;;;;;;5038676;28;20053;-82
2024/01/27 12:15:45;;;;;;;8.77;3.25;;;;;;;;;;5050849;28;20135;-74
2024/01/27 12:18:13;;;;;;;7.07;3.13;;;;;;;;;;5050022;28;20049;-75
2024/01/27 12:20:40;;;;;;;6.10;2.13;;;;;;;;;;5037513;28;20152;-75
2024/01/27 12:23:07;;;;;;;7.63;3.15;;;;;;;;;;5055765;28;20494;-75
2024/01/27 12:25:34;;;;;;;8.35;2.95;;;;;;;;;;5052810;28;20049;-75
2024/01/27 12:28:04;;;;;;;6.90;2.30;;;;;;;;;;5051711;28;20509;-75
2024/01/27 12:30:34;;;;;;;5.20;2.80;;;;;;;;;;5043313;28;20037;-75
2024/01/27 12:33:01;;;;;;;5.55;2.42;;;;;;;;;;5052017;28;20059;-83
2024/01/27 12:35:29;;;;;;;9.18;2.80;;;;;;;;;;5038951;28;20049;-82
2024/01/27 12:37:56;;;;;;;10.85;2.70;;;;;;;;;;5041257;28;20574;-82
2024/01/27 12:40:23;;;;;;;6.30;2.03;;;;;;;;;;5052295;28;20055;-82
2024/01/27 12:42:50;;;;;;;9.75;2.20;;;;;;;;;;5060165;28;20067;-81
2024/01/27 12:45:17;;;;;;;7.10;2.00;;;;;;;;;;5061954;28;20048;-81
2024/01/27 12:47:44;;;;;;;7.25;1.90;;;;;;;;;;5044193;28;21029;-82
2024/01/27 12:50:13;;;;;;;7.47;2.20;;;;;;;;;;5044830;28;20426;-82
2024/01/27 12:52:40;;;;;;;6.03;2.70;;;;;;;;;;5060451;28;20137;-82
2024/01/27 12:55:07;;;;;;;11.60;2.42;;;;;;;;;;5060685;28;20119;-81
2024/01/27 12:57:33;;;;;;;5.28;1.85;;;;;;;;;;5043379;28;20095;-81
2024/01/27 13:00:00;;;;;;;5.57;1.75;;;;;;;;;;5043301;28;20068;-81
2024/01/27 13:02:27;;;;;;;5.93;2.00;;;;;;;;;;5058242;28;20510;-81
2024/01/27 13:04:54;;;;;;;4.40;1.85;;;;;;;;;;5050738;28;20049;-82
2024/01/27 13:07:20;;;;;;;7.57;1.98;;;;;;;;;;5072575;28;20060;-82
2024/01/27 13:09:48;;;;;;;4.25;1.75;;;;;;;;;;5066045;28;20048;-82
2024/01/27 13:12:15;;;;;;;4.07;2.00;;;;;;;;;;5059349;28;20037;-82
2024/01/27 13:14:42;;;;;;;6.90;2.40;;;;;;;;;;5074037;28;20084;-82
2024/01/27 13:17:08;;;;;;;4.68;2.10;;;;;;;;;;5075782;28;20033;-83
2024/01/27 13:19:35;;;;;;;3.03;2.22;;;;;;;;;;5058819;28;20049;-81
2024/01/27 13:22:03;;;;;;;6.38;1.90;;;;;;;;;;5076030;28;20049;-81
2024/01/27 13:24:29;;;;;;;7.13;2.33;;;;;;;;;;5075465;28;20052;-82
2024/01/27 13:26:57;;;;;;;9.75;2.53;;;;;;;;;;5073492;28;20037;-82
2024/01/27 13:29:24;;;;;;;5.88;2.38;;;;;;;;;;5053630;28;20033;-81
2024/01/27 13:31:51;;;;;;;5.78;3.20;;;;;;;;;;5063803;28;20071;-82
2024/01/27 13:34:17;;;;;;;5.40;2.33;;;;;;;;;;5055143;28;20048;-81
2024/01/27 13:36:45;;;;;;;8.30;2.60;;;;;;;;;;5054435;28;20052;-81
2024/01/27 13:39:11;;;;;;;3.97;2.08;;;;;;;;;;5042511;28;20529;-81
2024/01/27 13:41:38;;;;;;;5.85;2.08;;;;;;;;;;5041851;28;20041;-81
2024/01/27 13:44:05;;;;;;;2.60;1.50;;;;;;;;;;5039998;28;20495;-82
2024/01/27 13:46:32;;;;;;;5.85;1.80;;;;;;;;;;5051296;28;20550;-81
2024/01/27 13:48:59;;;;;;;3.67;1.88;;;;;;;;;;5052530;28;20063;-81
2024/01/27 13:51:26;;;;;;;6.50;3.15;;;;;;;;;;5054632;28;20525;-80
2024/01/27 13:53:53;;;;;;;3.92;1.63;;;;;;;;;;5056099;28;20053;-81
2024/01/27 13:56:19;;;;;;;3.75;1.80;;;;;;;;;;5039810;28;20057;-79
2024/01/27 13:58:46;;;;;;;9.35;1.60;;;;;;;;;;5029090;28;20452;-80
2024/01/27 14:01:13;;;;;;;3.05;1.88;;;;;;;;;;5037764;28;20049;-80
2024/01/27 14:03:40;;;;;;;3.28;1.58;;;;;;;;;;5053855;28;20053;-80
2024/01/27 14:06:07;;;;;;;2.63;1.42;;;;;;;;;;5037159;28;20510;-81
2024/01/27 14:08:34;;;;;;;4.30;1.70;;;;;;;;;;5037673;28;20106;-81
2024/01/27 14:11:00;;;;;;;4.20;2.40;;;;;;;;;;5039612;28;20053;-81
2024/01/27 14:13:27;;;;;;;4.13;1.60;;;;;;;;;;5040828;28;20151;-81
2024/01/27 14:15:54;;;;;;;2.80;1.25;;;;;;;;;;5056285;28;20044;-81
2024/01/27 14:18:21;;;;;;;4.07;1.88;;;;;;;;;;5049932;28;20060;-81
2024/01/27 14:20:52;;;;;;;5.35;1.48;;;;;;;;;;5045325;28;20045;-83
2024/01/27 14:23:18;;;;;;;3.50;1.92;;;;;;;;;;5038068;28;20056;-81
2024/01/27 14:25:45;;;;;;;3.92;2.35;;;;;;;;;;5059686;28;20053;-81
2024/01/27 14:28:13;;;;;;;6.00;2.00;;;;;;;;;;5043470;28;20059;-82
2024/01/27 14:30:40;;;;;;;5.18;1.95;;;;;;;;;;5057195;28;20045;-81
2024/01/27 14:33:08;;;;;;;9.52;2.70;;;;;;;;;;5040708;28;20048;-82
2024/01/27 14:35:35;;;;;;;7.32;2.08;;;;;;;;;;5052724;28;20049;-81
2024/01/27 14:38:03;;;;;;;11.50;2.80;;;;;;;;;;5038549;28;20055;-81
2024/01/27 14:40:31;;;;;;;6.60;2.45;;;;;;;;;;5052767;28;20037;-81